createdAt,value
2018-08-04T00:00:13.650Z,55.42
2018-08-04T00:01:13.671Z,55.52
2018-08-04T00:02:13.689Z,56.20
2018-08-04T00:03:13.714Z,55.52
2018-08-04T00:04:13.743Z,55.22
2018-08-04T00:05:13.757Z,56.59
2018-08-04T00:06:13.762Z,55.71
2018-08-04T00:07:13.778Z,55.62
2018-08-04T00:08:13.795Z,56.29
2018-08-04T00:09:13.811Z,55.71
2018-08-04T00:10:13.829Z,54.94
2018-08-04T00:11:13.846Z,55.90
2018-08-04T00:12:13.864Z,55.52
2018-08-04T00:13:13.882Z,55.32
2018-08-04T00:14:13.900Z,55.40
2018-08-04T00:15:13.917Z,56.46
2018-08-04T00:16:13.940Z,55.90
2018-08-04T00:17:13.954Z,55.62
2018-08-04T00:18:13.974Z,55.30
2018-08-04T00:19:14.023Z,55.22
2018-08-04T00:20:14.010Z,55.90
2018-08-04T00:21:14.050Z,55.04
2018-08-04T00:22:14.045Z,55.58
2018-08-04T00:23:14.060Z,55.68
2018-08-04T00:24:14.080Z,56.16
2018-08-04T00:25:14.165Z,56.56
2018-08-04T00:26:14.113Z,55.68
2018-08-04T00:27:14.128Z,55.98
2018-08-04T00:28:14.154Z,55.58
2018-08-04T00:29:14.166Z,56.26
2018-08-04T00:30:14.183Z,56.36
2018-08-04T00:31:14.201Z,55.58
2018-08-04T00:32:14.217Z,55.58
2018-08-04T00:33:14.238Z,55.10
2018-08-04T00:34:14.258Z,55.98
2018-08-04T00:35:14.373Z,56.26
2018-08-04T00:36:14.309Z,56.75
2018-08-04T00:37:14.305Z,56.07
2018-08-04T00:38:14.409Z,56.56
2018-08-04T00:39:14.391Z,55.98
2018-08-04T00:40:14.377Z,56.56
2018-08-04T00:41:14.375Z,56.46
2018-08-04T00:43:15.680Z,56.52
2018-08-04T00:44:14.430Z,56.72
2018-08-04T00:45:14.445Z,56.72
2018-08-04T00:46:14.465Z,56.43
2018-08-04T00:47:14.478Z,56.16
2018-08-04T00:48:14.496Z,56.43
2018-08-04T00:49:14.516Z,56.24
2018-08-04T00:50:14.532Z,56.82
2018-08-04T00:51:14.601Z,57.20
2018-08-04T00:52:14.719Z,57.79
2018-08-04T00:55:14.876Z,56.82
2018-08-04T00:56:14.652Z,56.82
2018-08-04T00:57:14.658Z,58.47
2018-08-04T00:58:14.672Z,57.79
2018-08-04T00:59:14.686Z,57.30
2018-08-04T01:00:14.704Z,57.79
2018-08-04T01:01:14.723Z,57.20
2018-08-04T01:02:14.742Z,57.88
2018-08-04T01:03:14.756Z,57.88
2018-08-04T01:04:14.773Z,57.59
2018-08-04T01:05:14.793Z,58.92
2018-08-04T01:06:14.811Z,57.86
2018-08-04T01:07:14.827Z,58.65
2018-08-04T01:08:14.846Z,57.76
2018-08-04T01:09:14.864Z,58.44
2018-08-04T01:10:14.882Z,58.53
2018-08-04T01:11:14.903Z,58.72
2018-08-04T01:12:14.923Z,58.92
2018-08-04T01:13:15.342Z,58.92
2018-08-04T01:14:14.955Z,58.92
2018-08-04T01:15:14.965Z,59.21
2018-08-04T01:16:14.982Z,58.92
2018-08-04T01:17:15.000Z,59.79
2018-08-04T01:18:15.018Z,59.40
2018-08-04T01:19:15.036Z,59.21
2018-08-04T01:20:15.056Z,60.57
2018-08-04T01:21:15.073Z,59.40
2018-08-04T01:22:15.096Z,60.08
2018-08-04T01:23:15.106Z,59.50
2018-08-04T01:24:15.121Z,60.27
2018-08-04T01:25:15.189Z,59.69
2018-08-04T01:27:15.280Z,60.27
2018-08-04T01:28:15.191Z,61.24
2018-08-04T01:29:15.211Z,59.86
2018-08-04T01:30:15.230Z,60.24
2018-08-04T01:31:15.247Z,59.66
2018-08-04T01:32:15.272Z,60.08
2018-08-04T01:33:15.276Z,60.27
2018-08-04T01:34:15.303Z,60.34
2018-08-04T01:35:15.311Z,60.72
2018-08-04T01:36:15.331Z,60.14
2018-08-04T01:37:15.346Z,61.02
2018-08-04T01:38:15.362Z,61.11
2018-08-04T01:39:15.379Z,61.02
2018-08-04T01:40:15.402Z,60.82
2018-08-04T01:41:15.414Z,61.79
2018-08-04T01:42:15.433Z,60.92
2018-08-04T01:43:15.452Z,62.18
2018-08-04T01:44:15.509Z,61.60
2018-08-04T01:45:15.485Z,61.79
2018-08-04T01:46:15.502Z,62.05
2018-08-04T01:47:15.576Z,61.60
2018-08-04T01:48:15.548Z,61.98
2018-08-04T01:49:15.553Z,61.95
2018-08-04T01:50:15.572Z,62.63
2018-08-04T01:51:15.585Z,62.34
2018-08-04T01:52:15.615Z,62.53
2018-08-04T01:53:15.772Z,62.15
2018-08-04T01:54:15.637Z,63.02
2018-08-04T01:55:15.654Z,62.44
2018-08-04T01:56:15.671Z,63.60
2018-08-04T01:57:15.688Z,62.53
2018-08-04T01:58:15.708Z,62.53
2018-08-04T01:59:15.773Z,62.92
2018-08-04T02:00:15.740Z,62.82
2018-08-04T02:01:15.757Z,63.40
2018-08-04T02:02:15.776Z,62.63
2018-08-04T02:03:15.790Z,63.40
2018-08-04T02:04:15.812Z,63.40
2018-08-04T02:05:15.831Z,62.82
2018-08-04T02:06:15.850Z,63.31
2018-08-04T02:07:15.918Z,63.11
2018-08-04T02:08:19.617Z,63.11
2018-08-04T02:09:15.894Z,63.21
2018-08-04T02:10:15.912Z,63.89
2018-08-04T02:11:15.931Z,63.69
2018-08-04T02:12:15.957Z,63.89
2018-08-04T02:13:15.964Z,63.21
2018-08-04T02:14:16.005Z,63.50
2018-08-04T02:15:15.996Z,63.11
2018-08-04T02:16:16.015Z,63.40
2018-08-04T02:17:16.035Z,63.21
2018-08-04T02:18:16.047Z,63.21
2018-08-04T02:19:16.068Z,63.50
2018-08-04T02:20:16.079Z,64.18
2018-08-04T02:21:16.098Z,63.89
2018-08-04T02:22:16.117Z,63.95
2018-08-04T02:23:16.133Z,64.14
2018-08-04T02:24:16.150Z,64.53
2018-08-04T02:25:16.166Z,64.34
2018-08-04T02:26:16.181Z,63.95
2018-08-04T02:27:16.205Z,64.53
2018-08-04T02:28:16.216Z,64.43
2018-08-04T02:29:16.251Z,64.34
2018-08-04T02:30:16.250Z,65.11
2018-08-04T02:31:16.267Z,65.11
2018-08-04T02:32:16.285Z,65.11
2018-08-04T02:33:16.304Z,64.34
2018-08-04T02:34:16.347Z,64.53
2018-08-04T02:35:16.342Z,65.78
2018-08-04T02:36:16.354Z,64.92
2018-08-04T02:37:16.404Z,65.01
2018-08-04T02:38:16.384Z,64.72
2018-08-04T02:39:16.414Z,64.53
2018-08-04T02:40:16.422Z,65.59
2018-08-04T02:41:16.436Z,65.20
2018-08-04T02:42:16.453Z,65.30
2018-08-04T02:43:16.476Z,65.01
2018-08-04T02:44:16.488Z,66.08
2018-08-04T02:45:16.504Z,66.17
2018-08-04T02:46:16.521Z,65.69
2018-08-04T02:47:16.549Z,66.17
2018-08-04T02:48:16.567Z,65.69
2018-08-04T02:49:16.572Z,65.78
2018-08-04T02:50:16.637Z,66.17
2018-08-04T02:51:16.644Z,65.01
2018-08-04T02:52:16.624Z,65.01
2018-08-04T02:53:16.645Z,66.08
2018-08-04T02:54:16.661Z,65.01
2018-08-04T02:55:16.672Z,66.17
2018-08-04T02:56:16.683Z,66.17
2018-08-04T02:57:16.699Z,66.17
2018-08-04T02:58:16.715Z,65.69
2018-08-04T02:59:16.737Z,65.98
2018-08-04T03:00:16.751Z,66.08
2018-08-04T03:01:16.769Z,65.78
2018-08-04T03:02:16.785Z,66.24
2018-08-04T03:03:16.800Z,66.17
2018-08-04T03:04:16.817Z,65.85
2018-08-04T03:05:16.838Z,65.75
2018-08-04T03:06:16.855Z,65.95
2018-08-04T03:07:16.868Z,66.82
2018-08-04T03:08:16.884Z,66.82
2018-08-04T03:09:16.902Z,67.11
2018-08-04T03:10:16.929Z,67.49
2018-08-04T03:11:16.934Z,67.49
2018-08-04T03:12:16.952Z,67.20
2018-08-04T03:13:16.969Z,67.40
2018-08-04T03:14:16.986Z,68.07
2018-08-04T03:15:17.003Z,67.88
2018-08-04T03:16:17.019Z,67.49
2018-08-04T03:17:17.037Z,66.91
2018-08-04T03:18:17.075Z,67.69
2018-08-04T03:19:17.069Z,66.91
2018-08-04T03:20:17.086Z,67.59
2018-08-04T03:21:17.102Z,67.40
2018-08-04T03:22:17.125Z,67.40
2018-08-04T03:23:17.137Z,67.20
2018-08-04T03:24:17.155Z,67.11
2018-08-04T03:25:17.189Z,67.49
2018-08-04T03:26:17.195Z,67.49
2018-08-04T03:27:17.220Z,67.59
2018-08-04T03:28:17.221Z,68.07
2018-08-04T03:29:17.238Z,67.97
2018-08-04T03:30:17.254Z,67.30
2018-08-04T03:31:17.271Z,67.49
2018-08-04T03:32:17.287Z,67.59
2018-08-04T03:33:17.304Z,67.59
2018-08-04T03:34:17.338Z,67.88
2018-08-04T03:35:17.338Z,68.55
2018-08-04T03:36:17.354Z,67.30
2018-08-04T03:37:17.372Z,67.78
2018-08-04T03:38:17.389Z,68.07
2018-08-04T03:39:17.404Z,67.40
2018-08-04T03:40:17.423Z,67.40
2018-08-04T03:41:17.438Z,67.88
2018-08-04T03:42:17.457Z,68.55
2018-08-04T03:43:17.476Z,68.17
2018-08-04T03:44:17.488Z,68.65
2018-08-04T03:45:17.508Z,68.17
2018-08-04T03:46:17.522Z,68.55
2018-08-04T03:47:17.540Z,68.17
2018-08-04T03:48:17.555Z,68.07
2018-08-04T03:49:17.571Z,67.88
2018-08-04T03:50:17.588Z,68.17
2018-08-04T03:51:17.606Z,68.62
2018-08-04T03:52:17.621Z,69.20
2018-08-04T03:53:17.645Z,69.13
2018-08-04T03:54:17.658Z,68.65
2018-08-04T03:55:17.689Z,68.65
2018-08-04T03:56:17.847Z,68.75
2018-08-04T03:57:17.706Z,68.26
2018-08-04T03:58:17.722Z,68.65
2018-08-04T03:59:17.742Z,68.36
2018-08-04T04:00:17.785Z,68.62
2018-08-04T04:01:17.779Z,69.42
2018-08-04T04:02:17.794Z,68.43
2018-08-04T04:03:17.809Z,69.23
2018-08-04T04:04:17.825Z,69.04
2018-08-04T04:05:17.840Z,68.26
2018-08-04T04:06:17.858Z,68.07
2018-08-04T04:07:17.872Z,68.52
2018-08-04T04:09:17.911Z,68.33
2018-08-04T04:10:17.935Z,69.39
2018-08-04T04:11:17.948Z,69.81
2018-08-04T04:12:17.956Z,69.87
2018-08-04T04:13:17.976Z,68.91
2018-08-04T04:14:17.996Z,68.75
2018-08-04T04:15:18.026Z,69.52
2018-08-04T04:16:18.029Z,69.71
2018-08-04T04:17:18.040Z,68.75
2018-08-04T04:18:18.059Z,69.62
2018-08-04T04:19:18.073Z,69.13
2018-08-04T04:20:18.094Z,69.13
2018-08-04T04:21:18.110Z,69.13
2018-08-04T04:22:18.139Z,69.10
2018-08-04T04:23:18.141Z,69.04
2018-08-04T04:24:18.159Z,69.23
2018-08-04T04:25:18.182Z,69.52
2018-08-04T04:26:18.195Z,69.42
2018-08-04T04:27:18.211Z,69.32
2018-08-04T04:28:18.226Z,69.58
2018-08-04T04:29:18.247Z,69.04
2018-08-04T04:30:18.260Z,68.46
2018-08-04T04:31:18.276Z,68.52
2018-08-04T04:32:18.304Z,68.33
2018-08-04T04:33:18.312Z,69.00
2018-08-04T04:34:18.339Z,69.00
2018-08-04T04:35:18.342Z,69.49
2018-08-04T04:36:18.364Z,69.39
2018-08-04T04:37:18.376Z,69.00
2018-08-04T04:38:18.394Z,69.29
2018-08-04T04:39:18.410Z,69.29
2018-08-04T04:40:18.433Z,69.87
2018-08-04T04:41:18.444Z,70.16
2018-08-04T04:42:18.460Z,70.16
2018-08-04T04:43:18.484Z,70.64
2018-08-04T04:44:18.500Z,69.58
2018-08-04T04:45:18.510Z,70.45
2018-08-04T04:46:18.533Z,70.45
2018-08-04T04:47:18.543Z,69.87
2018-08-04T04:48:18.562Z,70.36
2018-08-04T04:49:18.579Z,70.36
2018-08-04T04:50:18.598Z,70.64
2018-08-04T04:51:18.609Z,70.16
2018-08-04T04:52:18.626Z,71.32
2018-08-04T04:53:18.643Z,70.26
2018-08-04T04:54:18.660Z,70.94
2018-08-04T04:55:18.694Z,70.74
2018-08-04T04:56:18.714Z,70.64
2018-08-04T04:57:18.716Z,70.54
2018-08-04T04:58:18.741Z,70.45
2018-08-04T04:59:18.763Z,71.12
2018-08-04T05:00:18.774Z,70.36
2018-08-04T05:01:18.779Z,70.94
2018-08-04T05:02:18.796Z,71.12
2018-08-04T05:03:18.813Z,71.32
2018-08-04T05:04:18.835Z,70.45
2018-08-04T05:05:18.856Z,71.42
2018-08-04T05:06:18.863Z,72.58
2018-08-04T05:07:18.879Z,71.90
2018-08-04T05:08:18.896Z,70.94
2018-08-04T05:09:18.917Z,71.70
2018-08-04T05:10:18.931Z,71.51
2018-08-04T05:11:18.950Z,71.70
2018-08-04T05:12:18.963Z,72.77
2018-08-04T05:13:19.003Z,72.48
2018-08-04T05:14:18.997Z,71.90
2018-08-04T05:15:19.027Z,71.90
2018-08-04T05:16:19.097Z,72.67
2018-08-04T05:17:19.049Z,72.58
2018-08-04T05:18:19.069Z,72.96
2018-08-04T05:19:19.082Z,72.00
2018-08-04T05:20:19.098Z,72.28
2018-08-04T05:21:19.127Z,71.80
2018-08-04T05:22:19.130Z,71.03
2018-08-04T05:23:19.158Z,72.58
2018-08-04T05:24:19.164Z,72.67
2018-08-04T05:25:19.180Z,72.67
2018-08-04T05:26:19.201Z,72.09
2018-08-04T05:27:19.214Z,72.38
2018-08-04T05:28:19.232Z,73.00
2018-08-04T05:29:19.249Z,72.00
2018-08-04T05:30:19.265Z,71.51
2018-08-04T05:31:19.281Z,71.26
2018-08-04T05:32:19.304Z,71.45
2018-08-04T05:33:19.315Z,71.84
2018-08-04T05:34:19.336Z,70.58
2018-08-04T05:35:19.349Z,71.36
2018-08-04T05:36:19.367Z,70.68
2018-08-04T05:37:19.444Z,70.58
2018-08-04T05:38:19.401Z,71.06
2018-08-04T05:39:19.431Z,71.36
2018-08-04T05:40:19.444Z,71.16
2018-08-04T05:41:19.481Z,71.16
2018-08-04T05:42:19.471Z,72.32
2018-08-04T05:43:19.553Z,71.90
2018-08-04T05:44:19.515Z,72.32
2018-08-04T05:45:19.529Z,72.38
2018-08-04T05:46:19.557Z,72.42
2018-08-04T05:47:19.559Z,73.38
2018-08-04T05:48:19.569Z,72.77
2018-08-04T05:49:19.584Z,73.15
2018-08-04T05:50:19.601Z,72.58
2018-08-04T05:51:19.622Z,72.77
2018-08-04T05:52:19.636Z,73.83
2018-08-04T05:53:19.670Z,73.54
2018-08-04T05:54:19.672Z,72.86
2018-08-04T05:55:19.705Z,73.58
2018-08-04T05:56:19.701Z,73.09
2018-08-04T05:57:19.726Z,73.35
2018-08-04T05:58:19.736Z,73.38
2018-08-04T05:59:19.750Z,73.93
2018-08-04T06:00:19.773Z,73.35
2018-08-04T06:01:19.787Z,72.48
2018-08-04T06:02:19.803Z,73.54
2018-08-04T06:03:19.844Z,73.44
2018-08-04T06:04:19.851Z,74.16
2018-08-04T06:05:19.853Z,73.77
2018-08-04T06:06:19.872Z,73.48
2018-08-04T06:07:19.887Z,74.06
2018-08-04T06:08:19.905Z,72.90
2018-08-04T06:09:19.924Z,73.48
2018-08-04T06:10:19.939Z,72.32
2018-08-04T06:11:20.004Z,73.48
2018-08-04T06:12:19.977Z,72.42
2018-08-04T06:13:20.002Z,73.19
2018-08-04T06:14:20.007Z,73.03
2018-08-04T06:15:20.022Z,72.84
2018-08-04T06:16:20.040Z,72.45
2018-08-04T06:17:20.065Z,72.84
2018-08-04T06:18:20.377Z,71.97
2018-08-04T06:19:20.093Z,72.36
2018-08-04T06:20:20.111Z,72.06
2018-08-04T06:21:20.181Z,72.36
2018-08-04T06:22:20.144Z,72.36
2018-08-04T06:23:20.160Z,71.88
2018-08-04T06:24:20.180Z,71.88
2018-08-04T06:25:20.192Z,71.78
2018-08-04T06:26:20.208Z,72.26
2018-08-04T06:27:20.225Z,71.78
2018-08-04T06:28:20.294Z,71.91
2018-08-04T06:29:20.257Z,71.78
2018-08-04T06:30:20.282Z,72.16
2018-08-04T06:31:20.289Z,71.97
2018-08-04T06:32:20.308Z,71.81
2018-08-04T06:33:20.324Z,71.68
2018-08-04T06:34:20.340Z,71.81
2018-08-04T06:35:20.355Z,71.42
2018-08-04T06:36:20.374Z,72.20
2018-08-04T06:37:20.395Z,72.58
2018-08-04T06:38:20.409Z,71.62
2018-08-04T06:39:20.425Z,72.30
2018-08-04T06:40:20.447Z,71.62
2018-08-04T06:41:20.459Z,71.81
2018-08-04T06:42:20.479Z,71.75
2018-08-04T06:43:20.501Z,70.98
2018-08-04T06:44:20.511Z,70.78
2018-08-04T06:45:20.528Z,71.08
2018-08-04T06:46:20.548Z,70.94
2018-08-04T06:47:20.569Z,72.30
2018-08-04T06:48:20.601Z,71.62
2018-08-04T06:49:20.597Z,72.30
2018-08-04T06:50:20.621Z,72.30
2018-08-04T06:51:20.653Z,71.08
2018-08-04T06:52:20.651Z,71.56
2018-08-04T06:53:20.673Z,71.66
2018-08-04T06:54:20.688Z,72.04
2018-08-04T06:55:20.702Z,72.42
2018-08-04T06:56:20.719Z,71.17
2018-08-04T06:57:20.736Z,72.42
2018-08-04T06:58:20.778Z,71.46
2018-08-04T06:59:20.774Z,71.08
2018-08-04T07:00:20.788Z,70.59
2018-08-04T07:01:20.807Z,70.59
2018-08-04T07:02:20.826Z,70.68
2018-08-04T07:03:20.840Z,71.36
2018-08-04T07:04:20.857Z,71.36
2018-08-04T07:05:20.878Z,71.08
2018-08-04T07:06:20.891Z,72.04
2018-08-04T07:07:20.911Z,71.36
2018-08-04T07:08:20.927Z,71.50
2018-08-04T07:09:20.955Z,70.78
2018-08-04T07:10:20.973Z,71.50
2018-08-04T07:11:20.984Z,71.50
2018-08-04T07:12:21.000Z,71.01
2018-08-04T07:13:21.029Z,69.85
2018-08-04T07:14:21.030Z,70.72
2018-08-04T07:15:21.046Z,71.11
2018-08-04T07:16:21.066Z,70.43
2018-08-04T07:17:21.082Z,69.75
2018-08-04T07:18:21.122Z,70.43
2018-08-04T07:19:21.121Z,70.72
2018-08-04T07:20:21.145Z,70.72
2018-08-04T07:21:21.152Z,70.62
2018-08-04T07:22:21.171Z,71.20
2018-08-04T07:23:21.195Z,71.50
2018-08-04T07:24:21.203Z,70.72
2018-08-04T07:25:21.233Z,71.01
2018-08-04T07:26:21.239Z,70.04
2018-08-04T07:27:21.256Z,70.72
2018-08-04T07:28:21.279Z,69.85
2018-08-04T07:29:21.289Z,70.04
2018-08-04T07:30:21.322Z,70.82
2018-08-04T07:31:21.335Z,70.82
2018-08-04T07:32:21.342Z,70.62
2018-08-04T07:33:21.374Z,70.04
2018-08-04T07:34:21.427Z,71.30
2018-08-04T07:35:21.405Z,70.62
2018-08-04T07:36:21.445Z,70.92
2018-08-04T07:37:21.443Z,70.92
2018-08-04T07:38:21.462Z,70.72
2018-08-04T07:39:21.464Z,70.53
2018-08-04T07:40:21.494Z,70.82
2018-08-04T07:41:21.499Z,70.53
2018-08-04T07:42:21.528Z,71.30
2018-08-04T07:43:21.543Z,70.72
2018-08-04T07:44:21.564Z,71.20
2018-08-04T07:45:21.601Z,70.76
2018-08-04T07:46:21.594Z,70.08
2018-08-04T07:47:21.616Z,69.95
2018-08-04T07:48:21.617Z,70.72
2018-08-04T07:49:21.637Z,70.34
2018-08-04T07:50:21.653Z,70.34
2018-08-04T07:51:21.671Z,69.95
2018-08-04T07:52:21.692Z,70.47
2018-08-04T07:53:21.705Z,70.27
2018-08-04T07:54:22.032Z,70.18
2018-08-04T07:55:21.756Z,69.79
2018-08-04T07:56:21.766Z,69.79
2018-08-04T07:57:21.789Z,69.50
2018-08-04T07:58:21.792Z,69.50
2018-08-04T07:59:21.820Z,69.69
2018-08-04T08:00:21.833Z,69.59
2018-08-04T08:01:21.843Z,69.05
2018-08-04T08:02:21.863Z,68.56
2018-08-04T08:03:21.878Z,68.76
2018-08-04T08:04:21.905Z,68.37
2018-08-04T08:05:21.918Z,68.66
2018-08-04T08:06:21.930Z,68.56
2018-08-04T08:07:21.947Z,68.47
2018-08-04T08:08:21.974Z,69.47
2018-08-04T08:09:21.983Z,68.27
2018-08-04T08:10:22.025Z,68.40
2018-08-04T08:11:22.133Z,68.30
2018-08-04T08:12:22.034Z,67.72
2018-08-04T08:13:22.066Z,67.72
2018-08-04T08:14:22.076Z,67.05
2018-08-04T08:15:22.088Z,66.95
2018-08-04T08:16:22.103Z,67.63
2018-08-04T08:17:22.134Z,66.79
2018-08-04T08:18:22.183Z,66.37
2018-08-04T08:19:22.185Z,66.11
2018-08-04T08:20:22.174Z,66.11
2018-08-04T08:21:22.202Z,65.92
2018-08-04T08:22:22.227Z,65.24
2018-08-04T08:23:22.238Z,65.05
2018-08-04T08:24:22.257Z,64.65
2018-08-04T08:25:22.272Z,64.75
2018-08-04T08:26:22.290Z,64.95
2018-08-04T08:27:22.312Z,65.14
2018-08-04T08:28:22.324Z,65.05
2018-08-04T08:29:22.355Z,64.75
2018-08-04T08:30:22.369Z,64.07
2018-08-04T08:31:22.426Z,64.11
2018-08-04T08:32:22.446Z,63.62
2018-08-04T08:33:22.466Z,63.04
2018-08-04T08:34:22.426Z,63.04
2018-08-04T08:35:22.450Z,63.04
2018-08-04T08:36:22.664Z,62.65
2018-08-04T08:37:22.484Z,62.55
2018-08-04T08:38:22.509Z,63.53
2018-08-04T08:39:22.519Z,63.53
2018-08-04T08:40:22.589Z,63.26
2018-08-04T08:41:22.760Z,62.49
2018-08-04T08:42:22.594Z,61.32
2018-08-04T08:43:22.589Z,61.04
2018-08-04T08:44:22.609Z,61.13
2018-08-04T08:45:22.614Z,60.74
2018-08-04T08:46:22.633Z,61.22
2018-08-04T08:47:22.650Z,60.94
2018-08-04T08:48:22.970Z,61.04
2018-08-04T08:49:22.688Z,61.04
2018-08-04T08:50:22.705Z,60.64
2018-08-04T08:51:22.723Z,61.04
2018-08-04T08:52:22.745Z,60.45
2018-08-04T08:53:22.923Z,59.38
2018-08-04T08:54:22.782Z,59.48
2018-08-04T08:55:22.803Z,59.80
2018-08-04T08:56:22.811Z,60.00
2018-08-04T08:57:22.837Z,60.87
2018-08-04T08:58:22.860Z,60.28
2018-08-04T08:59:22.882Z,60.19
2018-08-04T09:00:22.883Z,59.12
2018-08-04T09:01:22.931Z,59.03
2018-08-04T09:02:22.917Z,59.05
2018-08-04T09:03:22.936Z,60.22
2018-08-04T09:04:22.957Z,58.76
2018-08-04T09:05:22.975Z,58.76
2018-08-04T09:06:22.987Z,58.76
2018-08-04T09:07:23.011Z,58.47
2018-08-04T09:08:23.046Z,58.08
2018-08-04T09:09:23.065Z,57.31
2018-08-04T09:10:23.073Z,57.01
2018-08-04T09:11:23.081Z,56.04
2018-08-04T09:12:23.106Z,55.85
2018-08-04T09:13:23.116Z,55.36
2018-08-04T09:14:23.137Z,54.97
2018-08-04T09:15:23.151Z,55.27
2018-08-04T09:16:23.223Z,55.17
2018-08-04T09:17:23.191Z,54.71
2018-08-04T09:18:23.209Z,54.52
2018-08-04T09:19:23.222Z,54.61
2018-08-04T09:20:23.244Z,54.13
2018-08-04T09:21:23.261Z,54.42
2018-08-04T09:22:23.280Z,53.83
2018-08-04T09:23:23.297Z,53.74
2018-08-04T09:24:23.321Z,53.06
2018-08-04T09:25:23.383Z,53.45
2018-08-04T09:26:23.348Z,53.74
2018-08-04T09:27:23.370Z,53.77
2018-08-04T09:28:23.386Z,53.67
2018-08-04T09:29:23.597Z,54.83
2018-08-04T09:30:23.434Z,54.54
2018-08-04T09:31:23.452Z,54.64
2018-08-04T09:32:23.459Z,54.35
2018-08-04T09:33:23.482Z,54.05
2018-08-04T09:34:23.497Z,53.28
2018-08-04T09:35:23.531Z,53.67
2018-08-04T09:36:23.534Z,53.20
2018-08-04T09:37:23.553Z,53.20
2018-08-04T09:38:23.575Z,53.59
2018-08-04T09:39:23.587Z,53.20
2018-08-04T09:40:23.640Z,53.01
2018-08-04T09:41:23.625Z,53.30
2018-08-04T09:42:23.642Z,53.11
2018-08-04T09:43:23.662Z,51.94
2018-08-04T09:44:23.689Z,52.33
2018-08-04T09:45:23.697Z,52.33
2018-08-04T09:46:23.723Z,52.92
2018-08-04T09:47:23.736Z,53.30
2018-08-04T09:48:23.758Z,53.01
2018-08-04T09:49:23.774Z,52.33
2018-08-04T09:50:23.794Z,52.92
2018-08-04T09:51:23.807Z,53.11
2018-08-04T09:52:23.850Z,53.11
2018-08-04T09:53:24.152Z,53.14
2018-08-04T09:54:23.866Z,52.75
2018-08-04T09:55:23.884Z,51.55
2018-08-04T09:56:23.903Z,51.77
2018-08-04T09:57:23.923Z,51.67
2018-08-04T09:58:23.937Z,51.39
2018-08-04T09:59:23.949Z,51.87
2018-08-04T10:00:23.967Z,51.77
2018-08-04T10:01:23.996Z,51.87
2018-08-04T10:02:24.007Z,53.14
2018-08-04T10:03:24.025Z,53.81
2018-08-04T10:04:24.043Z,53.04
2018-08-04T10:05:24.069Z,53.14
2018-08-04T10:06:24.081Z,53.81
2018-08-04T10:07:24.100Z,53.23
2018-08-04T10:08:24.117Z,53.23
2018-08-04T10:09:24.139Z,52.48
2018-08-04T10:10:24.175Z,52.36
2018-08-04T10:11:24.185Z,52.09
2018-08-04T10:12:24.221Z,51.90
2018-08-04T10:13:24.211Z,50.92
2018-08-04T10:14:24.232Z,51.14
2018-08-04T10:16:24.280Z,50.04
2018-08-04T10:17:24.391Z,50.53
2018-08-04T10:18:24.307Z,51.24
2018-08-04T10:19:24.327Z,51.04
2018-08-04T10:20:24.404Z,50.26
2018-08-04T10:21:24.373Z,49.76
2018-08-04T10:22:24.406Z,50.75
2018-08-04T10:23:24.401Z,50.26
2018-08-04T10:24:24.427Z,50.36
2018-08-04T10:25:24.442Z,49.78
2018-08-04T10:26:24.460Z,50.07
2018-08-04T10:27:24.483Z,49.58
2018-08-04T10:28:24.496Z,49.29
2018-08-04T10:29:24.514Z,49.88
2018-08-04T10:30:24.538Z,49.51
2018-08-04T10:31:24.550Z,49.10
2018-08-04T10:32:24.704Z,49.78
2018-08-04T10:33:24.592Z,50.38
2018-08-04T10:34:24.607Z,48.80
2018-08-04T10:35:24.625Z,49.19
2018-08-04T10:36:24.646Z,50.36
2018-08-04T10:37:24.669Z,49.32
2018-08-04T10:38:24.683Z,49.41
2018-08-04T10:39:24.705Z,49.51
2018-08-04T10:40:24.723Z,49.32
2018-08-04T10:41:24.746Z,49.00
2018-08-04T10:42:24.760Z,49.00
2018-08-04T10:43:24.776Z,50.09
2018-08-04T10:44:24.797Z,49.80
2018-08-04T10:45:24.853Z,49.41
2018-08-04T10:46:24.862Z,50.38
2018-08-04T10:47:24.854Z,49.02
2018-08-04T10:48:24.873Z,48.63
2018-08-04T10:49:24.912Z,49.22
2018-08-04T10:50:24.910Z,49.05
2018-08-04T10:51:24.932Z,47.68
2018-08-04T10:52:24.949Z,48.56
2018-08-04T10:53:24.967Z,46.90
2018-08-04T10:54:25.044Z,47.39
2018-08-04T10:55:25.007Z,47.80
2018-08-04T10:56:25.027Z,46.92
2018-08-04T10:57:25.050Z,47.51
2018-08-04T10:58:25.065Z,47.80
2018-08-04T10:59:25.092Z,48.68
2018-08-04T11:00:25.106Z,47.80
2018-08-04T11:01:25.122Z,48.10
2018-08-04T11:02:25.141Z,49.46
2018-08-04T11:03:25.160Z,49.07
2018-08-04T11:04:25.225Z,48.39
2018-08-04T11:05:25.203Z,48.78
2018-08-04T11:06:25.218Z,47.80
2018-08-04T11:07:25.240Z,49.17
2018-08-04T11:08:25.258Z,48.49
2018-08-04T11:09:25.282Z,49.27
2018-08-04T11:10:25.307Z,48.39
2018-08-04T11:11:25.315Z,48.27
2018-08-04T11:12:25.380Z,48.39
2018-08-04T11:13:25.359Z,48.49
2018-08-04T11:14:25.411Z,48.58
2018-08-04T11:15:25.391Z,48.12
2018-08-04T11:16:25.417Z,48.41
2018-08-04T11:17:25.452Z,47.83
2018-08-04T11:18:25.492Z,48.41
2018-08-04T11:19:25.494Z,47.34
2018-08-04T11:20:25.494Z,46.56
2018-08-04T11:21:25.511Z,47.05
2018-08-04T11:22:25.533Z,47.73
2018-08-04T11:23:25.557Z,47.73
2018-08-04T11:24:25.572Z,47.36
2018-08-04T11:25:25.588Z,47.07
2018-08-04T11:26:25.627Z,46.19
2018-08-04T11:27:25.632Z,46.39
2018-08-04T11:28:25.652Z,46.09
2018-08-04T11:29:25.724Z,46.21
2018-08-04T11:30:25.698Z,45.62
2018-08-04T11:31:25.708Z,45.16
2018-08-04T11:32:25.729Z,45.75
2018-08-04T11:33:25.748Z,46.72
2018-08-04T11:34:25.766Z,45.36
2018-08-04T11:35:25.784Z,46.60
2018-08-04T11:36:25.806Z,46.31
2018-08-04T11:37:25.836Z,47.58
2018-08-04T11:38:25.846Z,46.50
2018-08-04T11:39:25.870Z,44.96
2018-08-04T11:40:25.885Z,44.28
2018-08-04T11:41:25.904Z,44.87
2018-08-04T11:42:25.946Z,45.75
2018-08-04T11:43:25.946Z,43.67
2018-08-04T11:44:25.996Z,44.45
2018-08-04T11:45:26.020Z,43.77
2018-08-04T11:46:26.011Z,45.23
2018-08-04T11:47:26.025Z,47.02
2018-08-04T11:48:26.052Z,44.57
2018-08-04T11:49:26.066Z,44.35
2018-08-04T11:50:26.083Z,44.06
2018-08-04T11:51:26.172Z,45.06
2018-08-04T11:52:26.142Z,46.62
2018-08-04T11:53:26.157Z,43.99
2018-08-04T11:54:26.194Z,44.09
2018-08-04T11:55:26.186Z,44.18
2018-08-04T11:56:26.204Z,43.20
2018-08-04T11:57:26.227Z,43.69
2018-08-04T11:58:26.291Z,44.87
2018-08-04T11:59:26.264Z,43.89
2018-08-04T12:00:26.290Z,45.55
2018-08-04T12:01:26.305Z,46.45
2018-08-04T12:02:26.326Z,45.45
2018-08-04T12:03:26.352Z,44.09
2018-08-04T12:04:26.371Z,45.26
2018-08-04T12:05:26.428Z,44.18
2018-08-04T12:06:26.429Z,44.28
2018-08-04T12:07:26.434Z,44.55
2018-08-04T12:08:26.450Z,43.87
2018-08-04T12:09:26.511Z,44.43
2018-08-04T12:10:26.509Z,45.41
2018-08-04T12:11:26.510Z,45.33
2018-08-04T12:12:26.528Z,46.31
2018-08-04T12:13:26.551Z,44.57
2018-08-04T12:14:26.576Z,42.74
2018-08-04T12:15:26.595Z,43.23
2018-08-04T12:16:26.607Z,43.69
2018-08-04T12:17:26.629Z,42.22
2018-08-04T12:18:26.678Z,42.91
2018-08-04T12:19:26.671Z,43.03
2018-08-04T12:20:26.689Z,42.74
2018-08-04T12:21:26.712Z,43.03
2018-08-04T12:22:26.732Z,42.54
2018-08-04T12:23:26.750Z,43.42
2018-08-04T12:24:26.773Z,43.13
2018-08-04T12:25:26.830Z,43.03
2018-08-04T12:26:26.817Z,44.23
2018-08-04T12:27:26.835Z,42.85
2018-08-04T12:28:26.868Z,42.76
2018-08-04T12:29:26.921Z,45.40
2018-08-04T12:30:26.894Z,42.09
2018-08-04T12:31:26.941Z,42.19
2018-08-04T12:32:26.936Z,43.27
2018-08-04T12:33:26.958Z,42.29
2018-08-04T12:34:26.977Z,42.88
2018-08-04T12:35:26.995Z,45.23
2018-08-04T12:36:27.016Z,42.60
2018-08-04T12:37:27.046Z,42.60
2018-08-04T12:38:27.065Z,41.52
2018-08-04T12:39:27.078Z,41.60
2018-08-04T12:40:27.102Z,41.68
2018-08-04T12:41:27.136Z,42.48
2018-08-04T12:42:27.144Z,42.68
2018-08-04T12:43:27.211Z,41.39
2018-08-04T12:44:27.186Z,42.56
2018-08-04T12:45:27.205Z,42.17
2018-08-04T12:46:27.226Z,43.95
2018-08-04T12:47:27.245Z,42.88
2018-08-04T12:48:27.283Z,43.88
2018-08-04T12:49:27.289Z,42.60
2018-08-04T12:50:27.306Z,40.82
2018-08-04T12:51:27.329Z,41.02
2018-08-04T12:52:27.349Z,42.60
2018-08-04T12:53:27.371Z,41.94
2018-08-04T12:54:27.453Z,42.13
2018-08-04T12:55:27.411Z,40.76
2018-08-04T12:56:27.431Z,41.15
2018-08-04T12:57:27.467Z,41.56
2018-08-04T12:58:27.492Z,40.56